sensor_id;sensor_type;location;lat;lon;timestamp;pressure;altitude;pressure_sealevel;temperature;humidity
10135;BME280;5107;48.850;8.924;2022-10-16T00:01:09;96727.34;;;14.87;93.69
10135;BME280;5107;48.850;8.924;2022-10-16T00:03:37;96728.34;;;14.86;93.98
10135;BME280;5107;48.850;8.924;2022-10-16T00:06:06;96729.34;;;14.85;93.89
10135;BME280;5107;48.850;8.924;2022-10-16T00:08:34;96727.72;;;14.84;94.08
10135;BME280;5107;48.850;8.924;2022-10-16T00:11:05;96731.19;;;14.84;93.76
10135;BME280;5107;48.850;8.924;2022-10-16T00:13:35;96725.66;;;14.79;94.18
10135;BME280;5107;48.850;8.924;2022-10-16T00:16:03;96717.53;;;14.80;94.49
10135;BME280;5107;48.850;8.924;2022-10-16T00:18:30;96721.34;;;14.71;94.60
10135;BME280;5107;48.850;8.924;2022-10-16T00:21:02;96723.91;;;14.58;95.12
10135;BME280;5107;48.850;8.924;2022-10-16T00:23:30;96721.59;;;14.49;95.86
10135;BME280;5107;48.850;8.924;2022-10-16T00:25:59;96715.25;;;14.43;96.74
10135;BME280;5107;48.850;8.924;2022-10-16T00:28:27;96711.97;;;14.41;96.85
10135;BME280;5107;48.850;8.924;2022-10-16T00:30:55;96721.56;;;14.42;96.96
10135;BME280;5107;48.850;8.924;2022-10-16T00:33:23;96729.13;;;14.45;96.67
10135;BME280;5107;48.850;8.924;2022-10-16T00:35:50;96727.09;;;14.47;96.58
10135;BME280;5107;48.850;8.924;2022-10-16T00:38:17;96726.06;;;14.48;96.40
10135;BME280;5107;48.850;8.924;2022-10-16T00:40:44;96730.34;;;14.49;96.49
10135;BME280;5107;48.850;8.924;2022-10-16T00:43:14;96726.88;;;14.49;96.29
10135;BME280;5107;48.850;8.924;2022-10-16T00:45:41;96726.28;;;14.47;96.40
10135;BME280;5107;48.850;8.924;2022-10-16T00:48:13;96730.75;;;14.46;96.71
10135;BME280;5107;48.850;8.924;2022-10-16T00:50:41;96722.00;;;14.46;96.63
10135;BME280;5107;48.850;8.924;2022-10-16T00:53:10;96730.56;;;14.48;96.65
10135;BME280;5107;48.850;8.924;2022-10-16T00:55:39;96733.00;;;14.49;96.43
10135;BME280;5107;48.850;8.924;2022-10-16T00:58:06;96740.94;;;14.49;96.41
10135;BME280;5107;48.850;8.924;2022-10-16T01:00:33;96731.38;;;14.48;96.48
10135;BME280;5107;48.850;8.924;2022-10-16T01:03:02;96731.00;;;14.51;96.33
10135;BME280;5107;48.850;8.924;2022-10-16T01:05:37;96736.91;;;14.53;96.06
10135;BME280;5107;48.850;8.924;2022-10-16T01:08:13;96724.31;;;14.55;96.00
10135;BME280;5107;48.850;8.924;2022-10-16T01:10:49;96732.03;;;14.57;96.09
10135;BME280;5107;48.850;8.924;2022-10-16T01:13:24;96734.50;;;14.58;96.05
10135;BME280;5107;48.850;8.924;2022-10-16T01:15:59;96739.41;;;14.61;95.90
10135;BME280;5107;48.850;8.924;2022-10-16T01:18:34;96735.78;;;14.69;95.26
10135;BME280;5107;48.850;8.924;2022-10-16T01:21:09;96741.31;;;14.74;95.09
10135;BME280;5107;48.850;8.924;2022-10-16T01:23:48;96744.41;;;14.77;94.66
10135;BME280;5107;48.850;8.924;2022-10-16T01:26:31;96747.69;;;14.79;94.34
10135;BME280;5107;48.850;8.924;2022-10-16T01:29:08;96738.50;;;14.82;94.35
10135;BME280;5107;48.850;8.924;2022-10-16T01:31:39;96741.16;;;14.82;94.53
10135;BME280;5107;48.850;8.924;2022-10-16T01:34:15;96740.97;;;14.84;94.02
10135;BME280;5107;48.850;8.924;2022-10-16T01:36:50;96732.38;;;14.81;94.47
10135;BME280;5107;48.850;8.924;2022-10-16T01:39:22;96731.34;;;14.76;94.61
10135;BME280;5107;48.850;8.924;2022-10-16T01:41:56;96737.84;;;14.73;95.16
10135;BME280;5107;48.850;8.924;2022-10-16T01:44:30;96723.78;;;14.73;94.82
10135;BME280;5107;48.850;8.924;2022-10-16T01:46:59;96722.78;;;14.74;94.81
10135;BME280;5107;48.850;8.924;2022-10-16T01:49:32;96718.28;;;14.74;94.82
10135;BME280;5107;48.850;8.924;2022-10-16T01:52:05;96723.66;;;14.81;94.41
10135;BME280;5107;48.850;8.924;2022-10-16T01:54:35;96724.25;;;14.83;94.25
10135;BME280;5107;48.850;8.924;2022-10-16T01:57:04;96724.06;;;14.85;94.45
10135;BME280;5107;48.850;8.924;2022-10-16T01:59:42;96727.72;;;14.84;94.51
10135;BME280;5107;48.850;8.924;2022-10-16T02:02:11;96729.34;;;14.85;94.54
10135;BME280;5107;48.850;8.924;2022-10-16T02:04:45;96726.72;;;14.91;94.34
10135;BME280;5107;48.850;8.924;2022-10-16T02:07:12;96731.47;;;14.96;94.16
10135;BME280;5107;48.850;8.924;2022-10-16T02:09:40;96730.66;;;15.02;93.57
10135;BME280;5107;48.850;8.924;2022-10-16T02:12:13;96733.94;;;15.04;93.50
10135;BME280;5107;48.850;8.924;2022-10-16T02:14:43;96724.34;;;15.03;93.48
10135;BME280;5107;48.850;8.924;2022-10-16T02:17:15;96722.72;;;15.02;93.44
10135;BME280;5107;48.850;8.924;2022-10-16T02:19:43;96728.22;;;15.07;93.04
10135;BME280;5107;48.850;8.924;2022-10-16T02:22:17;96732.75;;;15.13;92.31
10135;BME280;5107;48.850;8.924;2022-10-16T02:24:53;96732.75;;;15.13;92.31
10135;BME280;5107;48.850;8.924;2022-10-16T02:27:27;96729.28;;;15.12;92.13
10135;BME280;5107;48.850;8.924;2022-10-16T02:30:06;96732.56;;;15.14;91.81
10135;BME280;5107;48.850;8.924;2022-10-16T02:32:37;96733.16;;;15.16;91.35
10135;BME280;5107;48.850;8.924;2022-10-16T02:35:08;96735.41;;;15.13;91.67
10135;BME280;5107;48.850;8.924;2022-10-16T02:37:37;96737.06;;;15.14;91.76
10135;BME280;5107;48.850;8.924;2022-10-16T02:40:07;96742.34;;;15.14;91.36
10135;BME280;5107;48.850;8.924;2022-10-16T02:42:37;96747.25;;;15.17;90.92
10135;BME280;5107;48.850;8.924;2022-10-16T02:45:09;96743.97;;;15.15;91.29
10135;BME280;5107;48.850;8.924;2022-10-16T02:47:36;96740.13;;;15.17;90.90
10135;BME280;5107;48.850;8.924;2022-10-16T02:50:05;96743.97;;;15.15;90.99
10135;BME280;5107;48.850;8.924;2022-10-16T02:52:32;96747.03;;;15.12;91.13
10135;BME280;5107;48.850;8.924;2022-10-16T02:54:59;96751.69;;;15.10;91.38
10135;BME280;5107;48.850;8.924;2022-10-16T02:57:26;96749.25;;;15.08;91.18
10135;BME280;5107;48.850;8.924;2022-10-16T02:59:53;96751.06;;;15.08;91.36
10135;BME280;5107;48.850;8.924;2022-10-16T03:02:21;96742.53;;;15.06;91.45
10135;BME280;5107;48.850;8.924;2022-10-16T03:04:48;96753.50;;;15.03;91.54
10135;BME280;5107;48.850;8.924;2022-10-16T03:07:15;96754.50;;;15.02;91.92
10135;BME280;5107;48.850;8.924;2022-10-16T03:09:42;96745.94;;;15.00;91.55
10135;BME280;5107;48.850;8.924;2022-10-16T03:12:09;96749.59;;;14.99;91.49
10135;BME280;5107;48.850;8.924;2022-10-16T03:14:37;96751.66;;;14.97;91.83
10135;BME280;5107;48.850;8.924;2022-10-16T03:17:06;96746.28;;;14.90;91.94
10135;BME280;5107;48.850;8.924;2022-10-16T03:19:34;96754.66;;;14.87;92.25
10135;BME280;5107;48.850;8.924;2022-10-16T03:22:01;96756.84;;;14.84;92.53
10135;BME280;5107;48.850;8.924;2022-10-16T03:24:28;96762.56;;;14.80;92.55
10135;BME280;5107;48.850;8.924;2022-10-16T03:26:55;96757.28;;;14.80;92.86
10135;BME280;5107;48.850;8.924;2022-10-16T03:29:23;96750.53;;;14.78;92.77
10135;BME280;5107;48.850;8.924;2022-10-16T03:31:51;96747.25;;;14.76;92.99
10135;BME280;5107;48.850;8.924;2022-10-16T03:34:18;96747.44;;;14.74;92.86
10135;BME280;5107;48.850;8.924;2022-10-16T03:36:47;96751.50;;;14.70;93.05
10135;BME280;5107;48.850;8.924;2022-10-16T03:39:14;96757.16;;;14.67;93.24
10135;BME280;5107;48.850;8.924;2022-10-16T03:41:41;96752.47;;;14.63;93.63
10135;BME280;5107;48.850;8.924;2022-10-16T03:44:08;96751.03;;;14.60;93.63
10135;BME280;5107;48.850;8.924;2022-10-16T03:46:35;96758.13;;;14.60;93.78
10135;BME280;5107;48.850;8.924;2022-10-16T03:49:02;96746.91;;;14.58;93.65
10135;BME280;5107;48.850;8.924;2022-10-16T03:51:29;96754.03;;;14.57;93.84
10135;BME280;5107;48.850;8.924;2022-10-16T03:53:57;96750.38;;;14.58;93.74
10135;BME280;5107;48.850;8.924;2022-10-16T03:56:25;96758.34;;;14.58;93.56
10135;BME280;5107;48.850;8.924;2022-10-16T03:58:52;96759.16;;;14.59;93.66
10135;BME280;5107;48.850;8.924;2022-10-16T04:01:19;96748.56;;;14.59;93.63
10135;BME280;5107;48.850;8.924;2022-10-16T04:03:46;96750.56;;;14.57;93.70
10135;BME280;5107;48.850;8.924;2022-10-16T04:06:13;96753.84;;;14.59;93.29
10135;BME280;5107;48.850;8.924;2022-10-16T04:08:42;96749.38;;;14.59;93.33
10135;BME280;5107;48.850;8.924;2022-10-16T04:11:11;96749.38;;;14.59;93.32
10135;BME280;5107;48.850;8.924;2022-10-16T04:13:38;96751.19;;;14.59;93.40
10135;BME280;5107;48.850;8.924;2022-10-16T04:16:06;96738.97;;;14.58;93.22
10135;BME280;5107;48.850;8.924;2022-10-16T04:18:33;96741.63;;;14.58;93.41
10135;BME280;5107;48.850;8.924;2022-10-16T04:21:03;96752.22;;;14.58;93.34
10135;BME280;5107;48.850;8.924;2022-10-16T04:23:30;96745.91;;;14.59;92.71
10135;BME280;5107;48.850;8.924;2022-10-16T04:25:58;96762.22;;;14.56;93.64
10135;BME280;5107;48.850;8.924;2022-10-16T04:28:27;96753.22;;;14.57;93.38
10135;BME280;5107;48.850;8.924;2022-10-16T04:30:54;96759.56;;;14.56;93.58
10135;BME280;5107;48.850;8.924;2022-10-16T04:33:21;96757.09;;;14.54;93.73
10135;BME280;5107;48.850;8.924;2022-10-16T04:35:48;96762.59;;;14.53;93.61
10135;BME280;5107;48.850;8.924;2022-10-16T04:38:15;96769.31;;;14.55;93.32
10135;BME280;5107;48.850;8.924;2022-10-16T04:40:43;96763.22;;;14.55;93.62
10135;BME280;5107;48.850;8.924;2022-10-16T04:43:10;96776.03;;;14.58;93.09
10135;BME280;5107;48.850;8.924;2022-10-16T04:45:38;96781.16;;;14.59;93.10
10135;BME280;5107;48.850;8.924;2022-10-16T04:48:05;96780.16;;;14.60;92.75
10135;BME280;5107;48.850;8.924;2022-10-16T04:50:32;96780.16;;;14.60;92.83
10135;BME280;5107;48.850;8.924;2022-10-16T04:53:06;96787.47;;;14.58;92.97
10135;BME280;5107;48.850;8.924;2022-10-16T04:55:33;96785.00;;;14.57;92.99
10135;BME280;5107;48.850;8.924;2022-10-16T04:58:01;96784.41;;;14.55;93.21
10135;BME280;5107;48.850;8.924;2022-10-16T05:00:28;96798.47;;;14.55;93.09
10135;BME280;5107;48.850;8.924;2022-10-16T05:02:56;96796.81;;;14.54;93.08
10135;BME280;5107;48.850;8.924;2022-10-16T05:05:25;96793.53;;;14.52;93.24
10135;BME280;5107;48.850;8.924;2022-10-16T05:07:52;96782.72;;;14.47;93.45
10135;BME280;5107;48.850;8.924;2022-10-16T05:10:19;96786.38;;;14.46;93.47
10135;BME280;5107;48.850;8.924;2022-10-16T05:12:46;96780.25;;;14.46;93.45
10135;BME280;5107;48.850;8.924;2022-10-16T05:15:14;96775.31;;;14.42;93.62
10135;BME280;5107;48.850;8.924;2022-10-16T05:17:41;96784.28;;;14.41;93.67
10135;BME280;5107;48.850;8.924;2022-10-16T05:20:10;96775.50;;;14.41;93.68
10135;BME280;5107;48.850;8.924;2022-10-16T05:22:36;96790.78;;;14.39;93.64
10135;BME280;5107;48.850;8.924;2022-10-16T05:25:04;96780.38;;;14.37;94.04
10135;BME280;5107;48.850;8.924;2022-10-16T05:27:32;96786.84;;;14.35;93.86
10135;BME280;5107;48.850;8.924;2022-10-16T05:29:59;96788.69;;;14.34;94.04
10135;BME280;5107;48.850;8.924;2022-10-16T05:32:26;96794.97;;;14.33;94.00
10135;BME280;5107;48.850;8.924;2022-10-16T05:34:53;96797.00;;;14.31;94.17
10135;BME280;5107;48.850;8.924;2022-10-16T05:37:21;96791.69;;;14.31;94.20
10135;BME280;5107;48.850;8.924;2022-10-16T05:39:48;96795.97;;;14.32;94.12
10135;BME280;5107;48.850;8.924;2022-10-16T05:42:15;96795.78;;;14.34;93.73
10135;BME280;5107;48.850;8.924;2022-10-16T05:44:42;96799.91;;;14.36;93.58
10135;BME280;5107;48.850;8.924;2022-10-16T05:47:09;96808.09;;;14.41;93.32
10135;BME280;5107;48.850;8.924;2022-10-16T05:49:37;96808.94;;;14.42;93.12
10135;BME280;5107;48.850;8.924;2022-10-16T05:52:04;96821.16;;;14.43;93.11
10135;BME280;5107;48.850;8.924;2022-10-16T05:54:33;96821.97;;;14.43;93.12
10135;BME280;5107;48.850;8.924;2022-10-16T05:57:00;96816.72;;;14.50;92.54
10135;BME280;5107;48.850;8.924;2022-10-16T05:59:27;96804.75;;;14.54;92.62
10135;BME280;5107;48.850;8.924;2022-10-16T06:01:54;96808.22;;;14.55;92.35
10135;BME280;5107;48.850;8.924;2022-10-16T06:04:21;96807.41;;;14.54;92.42
10135;BME280;5107;48.850;8.924;2022-10-16T06:06:49;96814.13;;;14.57;92.21
10135;BME280;5107;48.850;8.924;2022-10-16T06:09:16;96821.88;;;14.58;92.39
10135;BME280;5107;48.850;8.924;2022-10-16T06:11:44;96817.22;;;14.60;92.17
10135;BME280;5107;48.850;8.924;2022-10-16T06:14:11;96825.41;;;14.65;92.21
10135;BME280;5107;48.850;8.924;2022-10-16T06:16:38;96821.56;;;14.68;91.91
10135;BME280;5107;48.850;8.924;2022-10-16T06:19:05;96822.97;;;14.64;91.82
10135;BME280;5107;48.850;8.924;2022-10-16T06:21:33;96809.28;;;14.60;92.17
10135;BME280;5107;48.850;8.924;2022-10-16T06:24:01;96814.13;;;14.57;92.46
10135;BME280;5107;48.850;8.924;2022-10-16T06:26:30;96827.19;;;14.58;92.51
10135;BME280;5107;48.850;8.924;2022-10-16T06:28:59;96822.53;;;14.60;92.27
10135;BME280;5107;48.850;8.924;2022-10-16T06:31:27;96829.84;;;14.58;92.57
10135;BME280;5107;48.850;8.924;2022-10-16T06:33:57;96833.50;;;14.57;92.54
10135;BME280;5107;48.850;8.924;2022-10-16T06:36:25;96829.00;;;14.58;92.64
10135;BME280;5107;48.850;8.924;2022-10-16T06:38:53;96846.38;;;14.60;92.37
10135;BME280;5107;48.850;8.924;2022-10-16T06:41:22;96852.47;;;14.61;92.57
10135;BME280;5107;48.850;8.924;2022-10-16T06:43:50;96850.66;;;14.61;92.53
10135;BME280;5107;48.850;8.924;2022-10-16T06:46:21;96845.34;;;14.61;92.46
10135;BME280;5107;48.850;8.924;2022-10-16T06:48:49;96853.94;;;14.63;92.72
10135;BME280;5107;48.850;8.924;2022-10-16T06:51:18;96862.50;;;14.65;92.29
10135;BME280;5107;48.850;8.924;2022-10-16T06:53:47;96860.28;;;14.69;92.18
10135;BME280;5107;48.850;8.924;2022-10-16T06:56:17;96868.03;;;14.70;92.11
10135;BME280;5107;48.850;8.924;2022-10-16T06:58:45;96860.94;;;14.71;92.14
10135;BME280;5107;48.850;8.924;2022-10-16T07:01:14;96873.16;;;14.72;91.81
10135;BME280;5107;48.850;8.924;2022-10-16T07:03:44;96873.16;;;14.72;92.31
10135;BME280;5107;48.850;8.924;2022-10-16T07:06:14;96882.53;;;14.74;91.89
10135;BME280;5107;48.850;8.924;2022-10-16T07:08:43;96882.34;;;14.76;91.81
10135;BME280;5107;48.850;8.924;2022-10-16T07:11:12;96898.06;;;14.77;91.97
10135;BME280;5107;48.850;8.924;2022-10-16T07:13:41;96888.91;;;14.80;91.50
10135;BME280;5107;48.850;8.924;2022-10-16T07:16:12;96897.47;;;14.82;91.63
10135;BME280;5107;48.850;8.924;2022-10-16T07:18:42;96895.63;;;14.82;91.41
10135;BME280;5107;48.850;8.924;2022-10-16T07:21:14;96901.75;;;14.83;91.75
10135;BME280;5107;48.850;8.924;2022-10-16T07:23:42;96901.75;;;14.83;91.65
10135;BME280;5107;48.850;8.924;2022-10-16T07:26:10;96907.06;;;14.83;91.64
10135;BME280;5107;48.850;8.924;2022-10-16T07:28:38;96911.16;;;14.86;91.63
10135;BME280;5107;48.850;8.924;2022-10-16T07:31:08;96906.31;;;14.89;91.19
10135;BME280;5107;48.850;8.924;2022-10-16T07:33:38;96904.91;;;14.93;90.84
10135;BME280;5107;48.850;8.924;2022-10-16T07:36:07;96907.59;;;15.00;90.78
10135;BME280;5107;48.850;8.924;2022-10-16T07:38:34;96906.03;;;15.05;90.84
10135;BME280;5107;48.850;8.924;2022-10-16T07:41:04;96917.50;;;15.12;90.12
10135;BME280;5107;48.850;8.924;2022-10-16T07:43:33;96917.53;;;15.19;90.15
10135;BME280;5107;48.850;8.924;2022-10-16T07:46:00;96925.72;;;15.24;90.07
10135;BME280;5107;48.850;8.924;2022-10-16T07:48:29;96931.91;;;15.31;90.03
10135;BME280;5107;48.850;8.924;2022-10-16T07:50:57;96923.81;;;15.39;89.95
10135;BME280;5107;48.850;8.924;2022-10-16T07:53:27;96923.84;;;15.46;89.23
10135;BME280;5107;48.850;8.924;2022-10-16T07:55:57;96925.97;;;15.57;89.21
10135;BME280;5107;48.850;8.924;2022-10-16T07:58:25;96936.22;;;15.67;88.65
10135;BME280;5107;48.850;8.924;2022-10-16T08:00:52;96937.94;;;15.81;88.02
10135;BME280;5107;48.850;8.924;2022-10-16T08:03:19;96942.69;;;15.92;87.84
10135;BME280;5107;48.850;8.924;2022-10-16T08:05:47;96942.31;;;16.02;87.16
10135;BME280;5107;48.850;8.924;2022-10-16T08:08:15;96940.94;;;16.19;86.79
10135;BME280;5107;48.850;8.924;2022-10-16T08:10:45;96936.94;;;16.49;84.40
10135;BME280;5107;48.850;8.924;2022-10-16T08:13:12;96933.38;;;16.90;83.71
10135;BME280;5107;48.850;8.924;2022-10-16T08:15:40;96936.44;;;16.93;82.62
10135;BME280;5107;48.850;8.924;2022-10-16T08:18:09;96956.88;;;16.93;83.12
10135;BME280;5107;48.850;8.924;2022-10-16T08:20:37;96959.13;;;16.89;83.37
10135;BME280;5107;48.850;8.924;2022-10-16T08:23:04;96961.56;;;16.84;83.57
10135;BME280;5107;48.850;8.924;2022-10-16T08:25:31;96956.44;;;16.76;83.83
10135;BME280;5107;48.850;8.924;2022-10-16T08:28:03;96959.91;;;16.70;83.59
10135;BME280;5107;48.850;8.924;2022-10-16T08:30:31;96965.25;;;16.70;83.22
10135;BME280;5107;48.850;8.924;2022-10-16T08:32:58;96960.75;;;16.71;82.84
10135;BME280;5107;48.850;8.924;2022-10-16T08:35:25;96973.22;;;16.77;83.27
10135;BME280;5107;48.850;8.924;2022-10-16T08:37:52;96966.25;;;16.82;82.57
10135;BME280;5107;48.850;8.924;2022-10-16T08:40:22;96969.16;;;16.87;83.11
10135;BME280;5107;48.850;8.924;2022-10-16T08:43:09;96965.66;;;16.93;82.62
10135;BME280;5107;48.850;8.924;2022-10-16T08:45:57;96971.81;;;17.00;82.88
10135;BME280;5107;48.850;8.924;2022-10-16T08:48:35;96970.41;;;17.04;82.35
10135;BME280;5107;48.850;8.924;2022-10-16T08:51:09;96957.50;;;17.08;82.15
10135;BME280;5107;48.850;8.924;2022-10-16T08:53:52;96955.69;;;17.15;82.62
10135;BME280;5107;48.850;8.924;2022-10-16T08:56:21;96966.72;;;17.19;82.22
10135;BME280;5107;48.850;8.924;2022-10-16T08:58:49;96970.59;;;17.23;81.32
10135;BME280;5107;48.850;8.924;2022-10-16T09:01:21;96963.84;;;17.27;80.69
10135;BME280;5107;48.850;8.924;2022-10-16T09:04:08;96965.47;;;17.34;80.95
10135;BME280;5107;48.850;8.924;2022-10-16T09:06:47;96973.03;;;17.44;80.69
10135;BME280;5107;48.850;8.924;2022-10-16T09:09:40;96977.75;;;17.68;80.60
10135;BME280;5107;48.850;8.924;2022-10-16T09:12:17;96978.31;;;17.90;79.07
10135;BME280;5107;48.850;8.924;2022-10-16T09:14:58;96989.34;;;18.00;79.17
10135;BME280;5107;48.850;8.924;2022-10-16T09:17:39;96995.91;;;18.04;79.20
10135;BME280;5107;48.850;8.924;2022-10-16T09:20:25;96990.78;;;18.03;78.95
10135;BME280;5107;48.850;8.924;2022-10-16T09:23:10;96990.38;;;17.93;78.78
10135;BME280;5107;48.850;8.924;2022-10-16T09:25:42;96987.72;;;17.93;79.14
10135;BME280;5107;48.850;8.924;2022-10-16T09:28:10;96987.94;;;17.98;78.06
10135;BME280;5107;48.850;8.924;2022-10-16T09:30:38;96994.31;;;17.90;78.08
10135;BME280;5107;48.850;8.924;2022-10-16T09:33:07;96996.50;;;18.06;78.69
10135;BME280;5107;48.850;8.924;2022-10-16T09:35:38;97003.22;;;18.22;76.68
10135;BME280;5107;48.850;8.924;2022-10-16T09:38:07;97007.28;;;18.31;77.04
10135;BME280;5107;48.850;8.924;2022-10-16T09:40:37;97007.63;;;18.48;76.49
10135;BME280;5107;48.850;8.924;2022-10-16T09:43:22;97011.69;;;18.95;73.64
10135;BME280;5107;48.850;8.924;2022-10-16T09:46:00;97017.63;;;19.28;72.39
10135;BME280;5107;48.850;8.924;2022-10-16T09:48:33;97016.28;;;19.44;71.34
10135;BME280;5107;48.850;8.924;2022-10-16T09:51:05;97025.84;;;19.27;71.84
10135;BME280;5107;48.850;8.924;2022-10-16T09:53:40;97032.06;;;19.21;72.81
10135;BME280;5107;48.850;8.924;2022-10-16T09:56:10;97027.59;;;19.08;71.46
10135;BME280;5107;48.850;8.924;2022-10-16T09:58:42;97032.16;;;19.01;71.85
10135;BME280;5107;48.850;8.924;2022-10-16T10:01:14;97026.38;;;19.11;71.31
10135;BME280;5107;48.850;8.924;2022-10-16T10:03:43;97022.16;;;19.28;70.68
10135;BME280;5107;48.850;8.924;2022-10-16T10:06:22;97023.50;;;19.37;70.71
10135;BME280;5107;48.850;8.924;2022-10-16T10:09:00;97036.66;;;19.39;70.84
10135;BME280;5107;48.850;8.924;2022-10-16T10:11:49;97036.66;;;19.39;70.58
10135;BME280;5107;48.850;8.924;2022-10-16T10:14:27;97031.09;;;19.40;70.82
10135;BME280;5107;48.850;8.924;2022-10-16T10:17:13;97039.94;;;19.41;70.49
10135;BME280;5107;48.850;8.924;2022-10-16T10:19:44;97041.72;;;19.47;70.16
10135;BME280;5107;48.850;8.924;2022-10-16T10:22:29;97038.19;;;19.53;71.22
10135;BME280;5107;48.850;8.924;2022-10-16T10:25:15;97047.84;;;19.54;69.41
10135;BME280;5107;48.850;8.924;2022-10-16T10:28:20;97048.00;;;19.59;69.31
10135;BME280;5107;48.850;8.924;2022-10-16T10:30:58;97051.00;;;19.69;70.63
10135;BME280;5107;48.850;8.924;2022-10-16T10:33:38;97043.25;;;19.86;70.30
10135;BME280;5107;48.850;8.924;2022-10-16T10:36:27;97043.38;;;20.16;68.10
10135;BME280;5107;48.850;8.924;2022-10-16T10:38:59;97040.50;;;20.54;69.07
10135;BME280;5107;48.850;8.924;2022-10-16T10:42:04;97040.88;;;20.75;66.87
10135;BME280;5107;48.850;8.924;2022-10-16T10:44:51;97038.13;;;20.94;66.16
10135;BME280;5107;48.850;8.924;2022-10-16T10:47:28;97037.13;;;21.36;65.67
10135;BME280;5107;48.850;8.924;2022-10-16T10:50:07;97042.63;;;21.41;63.41
10135;BME280;5107;48.850;8.924;2022-10-16T10:52:51;97036.78;;;21.44;63.39
10135;BME280;5107;48.850;8.924;2022-10-16T10:55:27;97041.31;;;22.09;62.91
10135;BME280;5107;48.850;8.924;2022-10-16T10:58:23;97038.41;;;22.62;63.03
10135;BME280;5107;48.850;8.924;2022-10-16T11:01:00;97032.97;;;22.45;59.93
10135;BME280;5107;48.850;8.924;2022-10-16T11:03:42;97035.09;;;22.31;60.24
10135;BME280;5107;48.850;8.924;2022-10-16T11:06:18;97033.31;;;22.37;60.94
10135;BME280;5107;48.850;8.924;2022-10-16T11:08:53;97037.69;;;22.15;61.22
10135;BME280;5107;48.850;8.924;2022-10-16T11:11:27;97046.06;;;21.83;61.14
10135;BME280;5107;48.850;8.924;2022-10-16T11:14:02;97044.75;;;21.86;62.86
10135;BME280;5107;48.850;8.924;2022-10-16T11:16:34;97047.34;;;22.04;64.04
10135;BME280;5107;48.850;8.924;2022-10-16T11:19:11;97040.91;;;21.93;61.74
10135;BME280;5107;48.850;8.924;2022-10-16T11:21:46;97039.75;;;22.01;61.42
10135;BME280;5107;48.850;8.924;2022-10-16T11:24:21;97035.00;;;22.03;61.47
10135;BME280;5107;48.850;8.924;2022-10-16T11:26:52;97037.50;;;22.45;62.67
10135;BME280;5107;48.850;8.924;2022-10-16T11:29:26;97037.34;;;22.63;61.23
10135;BME280;5107;48.850;8.924;2022-10-16T11:32:00;97042.81;;;22.68;60.76
10135;BME280;5107;48.850;8.924;2022-10-16T11:34:36;97035.97;;;23.00;59.55
10135;BME280;5107;48.850;8.924;2022-10-16T11:37:12;97040.13;;;23.53;61.30
10135;BME280;5107;48.850;8.924;2022-10-16T11:39:42;97041.59;;;23.77;60.18
10135;BME280;5107;48.850;8.924;2022-10-16T11:42:14;97042.88;;;23.41;57.78
10135;BME280;5107;48.850;8.924;2022-10-16T11:44:51;97041.28;;;23.12;58.93
10135;BME280;5107;48.850;8.924;2022-10-16T11:47:31;97038.47;;;22.90;60.61
10135;BME280;5107;48.850;8.924;2022-10-16T11:50:04;97037.22;;;23.10;62.44
10135;BME280;5107;48.850;8.924;2022-10-16T11:52:42;97038.56;;;23.40;61.65
10135;BME280;5107;48.850;8.924;2022-10-16T11:55:16;97031.59;;;23.73;60.97
10135;BME280;5107;48.850;8.924;2022-10-16T11:57:48;97035.09;;;23.90;58.73
10135;BME280;5107;48.850;8.924;2022-10-16T12:00:22;97032.78;;;23.99;56.17
10135;BME280;5107;48.850;8.924;2022-10-16T12:03:00;97030.44;;;23.86;58.43
10135;BME280;5107;48.850;8.924;2022-10-16T12:05:42;97032.47;;;23.78;56.90
10135;BME280;5107;48.850;8.924;2022-10-16T12:08:18;97031.13;;;23.59;59.56
10135;BME280;5107;48.850;8.924;2022-10-16T12:10:47;97029.25;;;23.60;59.95
10135;BME280;5107;48.850;8.924;2022-10-16T12:13:33;97033.09;;;23.35;61.01
10135;BME280;5107;48.850;8.924;2022-10-16T12:16:20;97032.19;;;23.30;62.07
10135;BME280;5107;48.850;8.924;2022-10-16T12:18:48;97027.97;;;23.34;61.82
10135;BME280;5107;48.850;8.924;2022-10-16T12:21:17;97023.06;;;23.31;61.31
10135;BME280;5107;48.850;8.924;2022-10-16T12:23:51;97029.84;;;24.17;60.43
10135;BME280;5107;48.850;8.924;2022-10-16T12:26:26;97025.69;;;24.48;58.23
10135;BME280;5107;48.850;8.924;2022-10-16T12:28:55;97022.44;;;24.68;55.34
10135;BME280;5107;48.850;8.924;2022-10-16T12:31:22;97021.22;;;24.80;55.37
10135;BME280;5107;48.850;8.924;2022-10-16T12:33:58;97034.44;;;24.38;56.15
10135;BME280;5107;48.850;8.924;2022-10-16T12:36:30;97036.78;;;23.96;57.64
10135;BME280;5107;48.850;8.924;2022-10-16T12:39:01;97032.59;;;23.67;59.55
10135;BME280;5107;48.850;8.924;2022-10-16T12:41:31;97035.75;;;23.35;59.85
10135;BME280;5107;48.850;8.924;2022-10-16T12:43:59;97035.34;;;23.27;60.17
10135;BME280;5107;48.850;8.924;2022-10-16T12:46:39;97031.28;;;23.24;60.18
10135;BME280;5107;48.850;8.924;2022-10-16T12:49:23;97036.66;;;22.96;62.11
10135;BME280;5107;48.850;8.924;2022-10-16T12:51:56;97040.84;;;22.63;62.15
10135;BME280;5107;48.850;8.924;2022-10-16T12:54:28;97038.22;;;22.40;63.03
10135;BME280;5107;48.850;8.924;2022-10-16T12:57:22;97042.22;;;22.26;63.68
10135;BME280;5107;48.850;8.924;2022-10-16T12:59:58;97042.22;;;22.14;63.98
10135;BME280;5107;48.850;8.924;2022-10-16T13:03:19;97043.16;;;22.08;63.91
10135;BME280;5107;48.850;8.924;2022-10-16T13:06:02;97050.75;;;22.00;65.39
10135;BME280;5107;48.850;8.924;2022-10-16T13:09:00;97046.75;;;22.02;64.31
10135;BME280;5107;48.850;8.924;2022-10-16T13:11:49;97053.50;;;21.93;64.54
10135;BME280;5107;48.850;8.924;2022-10-16T13:14:56;97052.03;;;21.97;65.49
10135;BME280;5107;48.850;8.924;2022-10-16T13:17:33;97049.19;;;21.92;65.12
10135;BME280;5107;48.850;8.924;2022-10-16T13:20:15;97046.97;;;21.89;64.75
10135;BME280;5107;48.850;8.924;2022-10-16T13:22:53;97049.31;;;21.74;65.24
10135;BME280;5107;48.850;8.924;2022-10-16T13:25:36;97046.75;;;21.67;65.08
10135;BME280;5107;48.850;8.924;2022-10-16T13:28:10;97044.28;;;21.66;65.43
10135;BME280;5107;48.850;8.924;2022-10-16T13:30:41;97050.22;;;21.56;66.11
10135;BME280;5107;48.850;8.924;2022-10-16T13:33:14;97048.25;;;21.75;66.66
10135;BME280;5107;48.850;8.924;2022-10-16T13:35:49;97053.72;;;22.38;69.03